Terminal Aerodrome Forecast
Issued by NWS Sterling, VA

Current Version | Previous Version | Graphics & Text | Print | Product List | Glossary On
Versions: 1 2 3 4 5 6 7 8 9 10 11 12 13 14 15 16 17 18 19 20 21 22 23 24 25 26
000
FTUS41 KLWX 260536
TAFDCA
TAF
KDCA 260536Z 2606/2706 19009KT P6SM FEW100
     FM261600 23016G23KT P6SM SCT060
     FM262000 24014G21KT 6SM -SHRA BKN060
     FM262200 24009KT 6SM -SHRA BKN060
     FM270000 23004KT P6SM SCT050
     FM270300 29005KT P6SM BKN050=

USA.gov is the U.S. government's official web portal to all federal, state and local government web resources and services.